This is the latest recevied weather packets stored in our database for station/object EB5AGF-13. If no packets are shown the sender has not sent any weather packets the latest 10 day(s).
| Time | Temp. | Humidity | Pressure | Rain* | Wind** | Luminosity | Snow |
|---|---|---|---|---|---|---|---|
| 1777644988 | 22.22° C | 75% | 1016.9 hPa | 0 mm | 0.89 m/s, 310° | 161 W/m² | - |
| 1777644684 | 22.22° C | 76% | 1017 hPa | 0 mm | 1.79 m/s, 229° | 316 W/m² | - |
| 1777644382 | 21.11° C | 78% | 1017 hPa | 0 mm | 0.45 m/s, 302° | 647 W/m² | - |
| 1777644076 | 21.11° C | 78% | 1017.3 hPa | 0 mm | 1.79 m/s, 219° | 290 W/m² | - |
| 1777643772 | 21.67° C | 77% | 1017.1 hPa | 0 mm | 1.79 m/s, 222° | 308 W/m² | - |
| 1777643468 | 21.67° C | 78% | 1017.3 hPa | 0 mm | 1.79 m/s, 207° | 294 W/m² | - |
| 1777643165 | 21.11° C | 79% | 1017.2 hPa | 0 mm | 1.79 m/s, 165° | 242 W/m² | - |
| 1777642860 | 21.11° C | 79% | 1017.2 hPa | 0 mm | 3.58 m/s, 206° | 168 W/m² | - |
| 1777642556 | 21.11° C | 79% | 1017.1 hPa | 0 mm | 3.13 m/s, 211° | 217 W/m² | - |
| 1777642252 | 21.11° C | 79% | 1017.2 hPa | 0 mm | 1.79 m/s, 186° | 248 W/m² | - |
| 1777641633 | 22.22° C | 76% | 1017 hPa | 0 mm | 1.79 m/s, 207° | 173 W/m² | - |
| 1777641332 | 22.22° C | 76% | 1017.2 hPa | 0 mm | 1.79 m/s, 190° | 589 W/m² | - |
| 1777641032 | 21.67° C | 79% | 1017.2 hPa | 0 mm | 0.89 m/s, 10° | 211 W/m² | - |
| 1777640732 | 21.11° C | 80% | 1017.3 hPa | 0 mm | 0.89 m/s, 246° | 107 W/m² | - |
| 1777640428 | 21.11° C | 80% | 1017.3 hPa | 0 mm | 2.24 m/s, 209° | 152 W/m² | - |
| 1777640124 | 21.11° C | 80% | 1017.2 hPa | 0 mm | 1.79 m/s, 224° | 191 W/m² | - |
| 1777639822 | 21.11° C | 80% | 1017.5 hPa | 0 mm | 1.79 m/s, 165° | 155 W/m² | - |
| 1777639516 | 21.67° C | 79% | 1017.3 hPa | 0 mm | 1.79 m/s, 209° | 620 W/m² | - |
| 1777639212 | 21.67° C | 78% | 1017.4 hPa | 0 mm | 0.89 m/s, 319° | 241 W/m² | - |
| 1777638908 | 21.67° C | 77% | 1017.3 hPa | 0 mm | 0.89 m/s, 290° | 214 W/m² | - |
| 1777638605 | 21.67° C | 77% | 1017.1 hPa | 0 mm | 3.58 m/s, 202° | 167 W/m² | - |
| 1777638300 | 22.22° C | 76% | 1017.3 hPa | 0 mm | 1.79 m/s, 119° | 164 W/m² | - |
| 1777637996 | 22.22° C | 75% | 1017.3 hPa | 0 mm | 2.68 m/s, 277° | 168 W/m² | - |
| 1777637692 | 22.78° C | 75% | 1017.3 hPa | 0 mm | 1.34 m/s, 151° | 239 W/m² | - |
| 1777637389 | 23.33° C | 69% | 1017.3 hPa | 0 mm | 1.34 m/s, 182° | 246 W/m² | - |
* Rain latest hour (hover to see other rain measurements)
** Current wind speed in m/s (hover to see current wind gust speed)